createdAt,value
2022-11-05T00:00:09.141Z,19.1
2022-11-05T00:01:09.734Z,19.7
2022-11-05T00:02:10.331Z,19.1
2022-11-05T00:03:11.153Z,18.4
2022-11-05T00:04:12.009Z,20.4
2022-11-05T00:05:12.609Z,20.8
2022-11-05T00:06:13.225Z,18.6
2022-11-05T00:07:13.846Z,19.6
2022-11-05T00:08:14.441Z,20.1
2022-11-05T00:09:15.037Z,20.0
2022-11-05T00:10:15.653Z,19.9
2022-11-05T00:11:18.261Z,20.4
2022-11-05T00:12:17.836Z,19.4
2022-11-05T00:13:18.433Z,19.1
2022-11-05T00:14:19.030Z,19.3
2022-11-05T00:15:19.642Z,19.6
2022-11-05T00:16:20.242Z,18.5
2022-11-05T00:17:20.837Z,19.7
2022-11-05T00:18:21.457Z,19.4
2022-11-05T00:19:22.041Z,20.8
2022-11-05T00:20:22.637Z,19.9
2022-11-05T00:21:23.231Z,19.7
2022-11-05T00:22:23.828Z,19.2
2022-11-05T00:23:24.423Z,20.0
2022-11-05T00:24:25.021Z,19.9
2022-11-05T00:25:25.614Z,19.6
2022-11-05T00:26:26.210Z,18.9
2022-11-05T00:27:26.806Z,19.0
2022-11-05T00:28:27.402Z,19.4
2022-11-05T00:29:27.994Z,20.9
2022-11-05T00:30:28.593Z,19.7
2022-11-05T00:31:29.187Z,18.3
2022-11-05T00:32:29.782Z,19.3
2022-11-05T00:33:30.376Z,18.4
2022-11-05T00:34:30.975Z,18.1
2022-11-05T00:35:31.570Z,18.0
2022-11-05T00:36:32.175Z,18.8
2022-11-05T00:37:32.764Z,18.9
2022-11-05T00:38:33.352Z,18.8
2022-11-05T00:39:33.948Z,19.0
2022-11-05T00:40:34.549Z,17.5
2022-11-05T00:41:35.138Z,17.6
2022-11-05T00:42:35.735Z,17.9
2022-11-05T00:43:36.331Z,17.9
2022-11-05T00:44:36.928Z,17.8
2022-11-05T00:45:37.522Z,18.7
2022-11-05T00:46:38.119Z,18.3
2022-11-05T00:47:38.712Z,18.3
2022-11-05T00:48:39.327Z,18.0
2022-11-05T00:49:39.941Z,17.4
2022-11-05T00:50:40.537Z,17.0
2022-11-05T00:51:41.131Z,17.1
2022-11-05T00:52:41.726Z,17.9
2022-11-05T00:53:42.319Z,16.8
2022-11-05T00:54:42.915Z,17.7
2022-11-05T00:55:43.510Z,16.3
2022-11-05T00:56:44.105Z,17.3
2022-11-05T00:57:44.700Z,16.1
2022-11-05T00:58:45.297Z,15.6
2022-11-05T00:59:45.893Z,17.6
2022-11-05T01:00:46.489Z,16.1
2022-11-05T01:01:47.157Z,17.0
2022-11-05T01:02:47.867Z,16.2
2022-11-05T01:03:51.637Z,15.5
2022-11-05T01:04:49.076Z,16.0
2022-11-05T01:05:49.671Z,15.8
2022-11-05T01:06:50.268Z,15.1
2022-11-05T01:07:50.861Z,15.7
2022-11-05T01:08:51.459Z,15.7
2022-11-05T01:09:52.050Z,15.7
2022-11-05T01:10:52.658Z,16.8
2022-11-05T01:11:53.244Z,15.7
2022-11-05T01:12:53.838Z,15.3
2022-11-05T01:13:54.433Z,17.0
2022-11-05T01:14:55.029Z,16.3
2022-11-05T01:15:55.628Z,16.9
2022-11-05T01:16:56.225Z,16.6
2022-11-05T01:17:56.820Z,17.9
2022-11-05T01:18:57.416Z,18.6
2022-11-05T01:19:58.012Z,17.4
2022-11-05T01:20:58.608Z,17.7
2022-11-05T01:21:59.221Z,17.4
2022-11-05T01:22:59.817Z,17.2
2022-11-05T01:24:00.433Z,18.1
2022-11-05T01:25:01.028Z,17.1
2022-11-05T01:26:01.626Z,17.1
2022-11-05T01:27:02.224Z,17.9
2022-11-05T01:28:02.820Z,17.2
2022-11-05T01:29:03.496Z,18.2
2022-11-05T01:30:04.064Z,17.2
2022-11-05T01:31:04.657Z,17.7
2022-11-05T01:32:05.271Z,16.9
2022-11-05T01:33:05.867Z,17.9
2022-11-05T01:34:06.460Z,18.0
2022-11-05T01:35:07.057Z,18.0
2022-11-05T01:36:07.651Z,18.1
2022-11-05T01:37:08.265Z,17.8
2022-11-05T01:38:08.861Z,17.3
2022-11-05T01:39:09.459Z,18.4
2022-11-05T01:40:10.072Z,17.5
2022-11-05T01:41:10.669Z,17.8
2022-11-05T01:42:11.283Z,17.7
2022-11-05T01:43:12.165Z,17.6
2022-11-05T01:44:12.920Z,18.8
2022-11-05T01:45:13.513Z,18.9
2022-11-05T01:46:14.127Z,18.0
2022-11-05T01:47:14.724Z,18.3
2022-11-05T01:48:15.319Z,17.7
2022-11-05T01:49:15.919Z,18.3
2022-11-05T01:50:16.506Z,20.6
2022-11-05T01:51:17.100Z,18.4
2022-11-05T01:52:17.697Z,18.6
2022-11-05T01:53:18.291Z,19.3
2022-11-05T01:54:18.888Z,18.2
2022-11-05T01:55:19.484Z,18.1
2022-11-05T01:56:20.083Z,18.5
2022-11-05T01:57:20.675Z,17.4
2022-11-05T01:58:21.271Z,19.4
2022-11-05T01:59:21.863Z,19.6
2022-11-05T02:00:22.457Z,18.5
2022-11-05T02:01:23.142Z,18.1
2022-11-05T02:02:23.861Z,18.5
2022-11-05T02:03:24.468Z,18.0
2022-11-05T02:04:25.063Z,19.1
2022-11-05T02:05:25.658Z,18.8
2022-11-05T02:06:26.253Z,18.8
2022-11-05T02:07:26.848Z,18.0
2022-11-05T02:08:27.444Z,18.3
2022-11-05T02:09:28.040Z,18.2
2022-11-05T02:10:28.638Z,18.8
2022-11-05T02:11:29.249Z,19.5
2022-11-05T02:12:29.902Z,18.5
2022-11-05T02:13:30.458Z,19.0
2022-11-05T02:14:31.056Z,19.0
2022-11-05T02:15:31.650Z,18.2
2022-11-05T02:16:32.246Z,18.8
2022-11-05T02:17:32.840Z,17.6
2022-11-05T02:18:33.433Z,18.0
2022-11-05T02:19:34.026Z,18.5
2022-11-05T02:20:34.621Z,18.6
2022-11-05T02:21:35.216Z,19.7
2022-11-05T02:22:35.817Z,18.5
2022-11-05T02:23:36.407Z,19.9
2022-11-05T02:24:37.002Z,18.7
2022-11-05T02:25:37.597Z,18.3
2022-11-05T02:26:38.193Z,18.7
2022-11-05T02:27:38.855Z,18.1
2022-11-05T02:28:39.395Z,18.3
2022-11-05T02:29:39.992Z,18.4
2022-11-05T02:30:40.586Z,18.1
2022-11-05T02:31:41.179Z,17.9
2022-11-05T02:32:41.777Z,18.5
2022-11-05T02:33:42.369Z,17.9
2022-11-05T02:34:42.965Z,19.4
2022-11-05T02:35:43.558Z,18.3
2022-11-05T02:36:44.154Z,19.0
2022-11-05T02:37:44.750Z,18.7
2022-11-05T02:38:45.349Z,19.9
2022-11-05T02:39:45.938Z,18.8
2022-11-05T02:40:46.539Z,18.7
2022-11-05T02:41:47.133Z,19.5
2022-11-05T02:42:47.725Z,19.9
2022-11-05T02:43:48.321Z,20.4
2022-11-05T02:44:48.915Z,21.0
2022-11-05T02:45:49.530Z,19.5
2022-11-05T02:46:50.130Z,19.6
2022-11-05T02:47:50.723Z,21.1
2022-11-05T02:48:51.318Z,20.6
2022-11-05T02:49:51.911Z,20.6
2022-11-05T02:50:52.511Z,21.6
2022-11-05T02:51:53.102Z,19.8
2022-11-05T02:52:53.700Z,19.8
2022-11-05T02:53:54.294Z,22.6
2022-11-05T02:54:54.892Z,21.0
2022-11-05T02:55:55.486Z,21.3
2022-11-05T02:56:56.085Z,21.8
2022-11-05T02:57:56.679Z,21.2
2022-11-05T02:58:57.273Z,20.7
2022-11-05T02:59:57.868Z,21.6
2022-11-05T03:00:58.469Z,22.3
2022-11-05T03:01:59.170Z,21.9
2022-11-05T03:02:59.744Z,21.5
2022-11-05T03:04:00.280Z,22.2
2022-11-05T03:05:00.875Z,22.0
2022-11-05T03:06:01.470Z,22.0
2022-11-05T03:07:02.064Z,22.5
2022-11-05T03:08:02.660Z,22.4
2022-11-05T03:09:03.255Z,22.6
2022-11-05T03:10:03.851Z,22.7
2022-11-05T03:11:04.466Z,22.8
2022-11-05T03:12:05.058Z,23.5
2022-11-05T03:13:05.720Z,22.3
2022-11-05T03:14:06.269Z,23.1
2022-11-05T03:15:06.866Z,23.8
2022-11-05T03:16:07.462Z,21.1
2022-11-05T03:17:08.075Z,21.4
2022-11-05T03:18:08.673Z,22.4
2022-11-05T03:19:09.266Z,22.4
2022-11-05T03:20:09.862Z,23.0
2022-11-05T03:21:10.456Z,23.2
2022-11-05T03:22:11.050Z,23.8
2022-11-05T03:23:11.912Z,22.2
2022-11-05T03:24:12.781Z,23.8
2022-11-05T03:25:13.375Z,23.0
2022-11-05T03:26:13.971Z,23.6
2022-11-05T03:27:14.564Z,22.6
2022-11-05T03:28:15.163Z,23.0
2022-11-05T03:29:15.756Z,23.6
2022-11-05T03:30:16.352Z,23.1
2022-11-05T03:31:16.949Z,23.0
2022-11-05T03:32:17.548Z,22.3
2022-11-05T03:33:18.135Z,21.8
2022-11-05T03:34:18.729Z,21.0
2022-11-05T03:35:19.327Z,20.3
2022-11-05T03:36:19.922Z,20.6
2022-11-05T03:37:20.520Z,22.0
2022-11-05T03:38:21.113Z,19.4
2022-11-05T03:39:21.706Z,21.0
2022-11-05T03:40:22.299Z,21.7
2022-11-05T03:41:22.895Z,21.5
2022-11-05T03:42:23.490Z,21.3
2022-11-05T03:43:24.085Z,22.3
2022-11-05T03:44:24.680Z,21.4
2022-11-05T03:45:25.276Z,22.0
2022-11-05T03:46:25.874Z,22.3
2022-11-05T03:47:26.469Z,21.7
2022-11-05T03:48:27.128Z,20.2
2022-11-05T03:49:27.672Z,22.0
2022-11-05T03:50:28.267Z,22.0
2022-11-05T03:51:28.867Z,23.3
2022-11-05T03:52:29.461Z,22.0
2022-11-05T03:53:30.062Z,22.5
2022-11-05T03:54:30.651Z,23.3
2022-11-05T03:55:31.249Z,22.1
2022-11-05T03:56:31.844Z,20.9
2022-11-05T03:57:32.440Z,22.5
2022-11-05T03:58:33.037Z,20.9
2022-11-05T03:59:33.630Z,21.5
2022-11-05T04:00:34.245Z,22.6
2022-11-05T04:01:34.885Z,23.5
2022-11-05T04:02:35.624Z,22.3
2022-11-05T04:03:36.133Z,23.1
2022-11-05T04:04:36.689Z,22.0
2022-11-05T04:05:37.281Z,23.0
2022-11-05T04:06:37.875Z,22.3
2022-11-05T04:07:38.474Z,24.0
2022-11-05T04:08:39.067Z,24.1
2022-11-05T04:09:39.662Z,25.3
2022-11-05T04:10:40.258Z,24.5
2022-11-05T04:11:40.856Z,23.6
2022-11-05T04:12:41.450Z,24.0
2022-11-05T04:13:42.052Z,23.3
2022-11-05T04:14:42.643Z,23.9
2022-11-05T04:15:43.239Z,22.4
2022-11-05T04:16:43.853Z,23.1
2022-11-05T04:17:44.447Z,24.0
2022-11-05T04:18:45.045Z,25.2
2022-11-05T04:19:45.658Z,24.2
2022-11-05T04:20:46.253Z,24.3
2022-11-05T04:21:46.849Z,23.6
2022-11-05T04:22:47.444Z,23.6
2022-11-05T04:23:48.038Z,24.3
2022-11-05T04:24:48.637Z,23.3
2022-11-05T04:25:49.226Z,23.0
2022-11-05T04:26:49.821Z,23.0
2022-11-05T04:27:50.422Z,21.8
2022-11-05T04:28:51.100Z,21.9
2022-11-05T04:29:51.639Z,23.3
2022-11-05T04:30:52.236Z,23.4
2022-11-05T04:31:52.845Z,22.1
2022-11-05T04:32:53.423Z,22.0
2022-11-05T04:33:54.026Z,22.9
2022-11-05T04:34:54.614Z,22.8
2022-11-05T04:35:55.210Z,23.5
2022-11-05T04:36:55.802Z,22.9
2022-11-05T04:37:56.397Z,23.3
2022-11-05T04:38:56.995Z,24.3
2022-11-05T04:39:57.589Z,24.3
2022-11-05T04:40:58.182Z,22.1
2022-11-05T04:41:58.779Z,24.1
2022-11-05T04:42:59.374Z,23.0
2022-11-05T04:43:59.969Z,23.2
2022-11-05T04:45:00.561Z,23.4
2022-11-05T04:46:01.157Z,23.5
2022-11-05T04:47:01.751Z,22.9
2022-11-05T04:48:02.346Z,25.6
2022-11-05T04:49:02.941Z,23.2
2022-11-05T04:50:03.545Z,24.9
2022-11-05T04:51:04.133Z,24.9
2022-11-05T04:52:04.726Z,25.5
2022-11-05T04:53:05.323Z,24.1
2022-11-05T04:54:05.920Z,26.2
2022-11-05T04:55:06.531Z,26.1
2022-11-05T04:56:07.130Z,25.4
2022-11-05T04:57:07.722Z,26.7
2022-11-05T04:58:08.319Z,25.6
2022-11-05T04:59:08.914Z,26.2
2022-11-05T05:00:09.511Z,26.1
2022-11-05T05:01:10.218Z,26.1
2022-11-05T05:02:10.888Z,27.0
2022-11-05T05:03:11.679Z,26.4
2022-11-05T05:04:12.496Z,26.6
2022-11-05T05:05:13.087Z,25.8
2022-11-05T05:06:13.682Z,25.3
2022-11-05T05:07:14.279Z,27.3
2022-11-05T05:08:14.874Z,27.1
2022-11-05T05:09:15.471Z,27.4
2022-11-05T05:10:16.074Z,28.1
2022-11-05T05:11:16.682Z,26.5
2022-11-05T05:12:17.285Z,27.3
2022-11-05T05:13:17.873Z,28.9
2022-11-05T05:14:18.468Z,26.9
2022-11-05T05:15:19.065Z,27.1
2022-11-05T05:16:19.656Z,30.5
2022-11-05T05:17:20.252Z,28.7
2022-11-05T05:18:20.848Z,28.1
2022-11-05T05:19:21.445Z,27.1
2022-11-05T05:20:22.038Z,30.5
2022-11-05T05:21:22.638Z,28.5
2022-11-05T05:22:23.250Z,30.0
2022-11-05T05:23:23.843Z,30.1
2022-11-05T05:24:24.438Z,31.9
2022-11-05T05:25:25.044Z,29.7
2022-11-05T05:26:25.628Z,30.6
2022-11-05T05:27:26.224Z,30.5
2022-11-05T05:28:26.822Z,31.7
2022-11-05T05:29:27.420Z,33.2
2022-11-05T05:30:28.012Z,35.8
2022-11-05T05:31:28.608Z,34.8
2022-11-05T05:32:29.207Z,36.4
2022-11-05T05:33:29.798Z,37.1
2022-11-05T05:34:30.396Z,36.8
2022-11-05T05:35:30.991Z,36.7
2022-11-05T05:36:31.589Z,36.6
2022-11-05T05:37:32.203Z,36.0
2022-11-05T05:38:32.799Z,38.0
2022-11-05T05:39:33.396Z,35.6
2022-11-05T05:40:33.993Z,36.1
2022-11-05T05:41:34.589Z,39.4
2022-11-05T05:42:40.227Z,38.9
2022-11-05T05:43:36.789Z,36.1
2022-11-05T05:44:37.387Z,37.3
2022-11-05T05:45:37.982Z,36.1
2022-11-05T05:46:38.578Z,37.0
2022-11-05T05:47:39.173Z,37.3
2022-11-05T05:48:39.773Z,38.7
2022-11-05T05:49:40.369Z,36.8
2022-11-05T05:50:40.967Z,36.3
2022-11-05T05:51:41.561Z,38.2
2022-11-05T05:52:42.159Z,34.3
2022-11-05T05:53:42.868Z,36.4
2022-11-05T05:54:43.468Z,35.9
2022-11-05T05:55:44.061Z,37.3
2022-11-05T05:56:44.663Z,38.2
2022-11-05T05:57:45.255Z,37.3
2022-11-05T05:58:45.850Z,36.8
2022-11-05T05:59:46.451Z,35.0
2022-11-05T06:00:47.044Z,36.3
2022-11-05T06:01:47.716Z,34.8
2022-11-05T06:02:48.402Z,32.6
2022-11-05T06:03:49.015Z,32.2
2022-11-05T06:04:49.574Z,35.7
2022-11-05T06:05:50.171Z,34.8
2022-11-05T06:06:50.764Z,33.7
2022-11-05T06:07:51.363Z,33.5
2022-11-05T06:08:51.957Z,31.9
2022-11-05T06:09:52.574Z,30.9
2022-11-05T06:10:53.283Z,29.8
2022-11-05T06:11:53.847Z,32.9
2022-11-05T06:12:54.439Z,31.4
2022-11-05T06:13:55.038Z,30.4
2022-11-05T06:14:55.632Z,29.6
2022-11-05T06:15:56.232Z,31.1
2022-11-05T06:16:56.829Z,28.8
2022-11-05T06:17:57.429Z,30.1
2022-11-05T06:18:58.023Z,30.7
2022-11-05T06:19:58.624Z,30.2
2022-11-05T06:20:59.219Z,30.2
2022-11-05T06:21:59.818Z,31.8
2022-11-05T06:23:00.416Z,34.2
2022-11-05T06:24:01.021Z,34.5
2022-11-05T06:25:01.612Z,34.1
2022-11-05T06:26:02.213Z,34.1
2022-11-05T06:27:02.810Z,30.9
2022-11-05T06:28:03.429Z,30.4
2022-11-05T06:29:04.004Z,33.1
2022-11-05T06:30:04.662Z,33.7
2022-11-05T06:31:05.219Z,32.0
2022-11-05T06:32:05.817Z,31.6
2022-11-05T06:33:06.415Z,31.9
2022-11-05T06:34:07.011Z,30.0
2022-11-05T06:35:07.611Z,30.9
2022-11-05T06:36:08.209Z,30.1
2022-11-05T06:37:08.871Z,30.6
2022-11-05T06:38:09.471Z,31.8
2022-11-05T06:39:10.090Z,33.0
2022-11-05T06:40:10.691Z,33.3
2022-11-05T06:41:11.291Z,31.2
2022-11-05T06:42:18.263Z,32.7
2022-11-05T06:43:13.732Z,33.2
2022-11-05T06:44:13.984Z,33.2
2022-11-05T06:45:14.581Z,32.5
2022-11-05T06:46:15.182Z,32.9
2022-11-05T06:47:15.781Z,33.5
2022-11-05T06:48:16.380Z,34.2
2022-11-05T06:49:16.977Z,34.3
2022-11-05T06:50:17.579Z,34.7
2022-11-05T06:51:18.181Z,35.2
2022-11-05T06:52:18.780Z,34.3
2022-11-05T06:53:19.382Z,34.8
2022-11-05T06:54:19.984Z,34.4
2022-11-05T06:55:20.582Z,34.3
2022-11-05T06:56:21.182Z,35.9
2022-11-05T06:57:21.804Z,35.7
2022-11-05T06:58:22.405Z,37.3
2022-11-05T06:59:23.056Z,37.3
2022-11-05T07:00:23.656Z,37.9
2022-11-05T07:01:24.388Z,37.2
2022-11-05T07:02:25.028Z,37.3
2022-11-05T07:03:25.602Z,38.4
2022-11-05T07:04:26.208Z,37.2
2022-11-05T07:05:26.804Z,36.7
2022-11-05T07:06:27.406Z,38.3
2022-11-05T07:07:28.006Z,41.1
2022-11-05T07:08:28.607Z,39.8
2022-11-05T07:09:29.211Z,43.7
2022-11-05T07:10:29.807Z,41.7
2022-11-05T07:11:30.408Z,44.2
2022-11-05T07:12:31.028Z,41.7
2022-11-05T07:13:31.633Z,46.2
2022-11-05T07:14:32.234Z,41.4
2022-11-05T07:15:33.067Z,42.4
2022-11-05T07:16:33.581Z,38.7
2022-11-05T07:17:34.183Z,40.9
2022-11-05T07:18:34.785Z,43.4
2022-11-05T07:19:35.392Z,38.7
2022-11-05T07:20:36.029Z,40.7
2022-11-05T07:21:36.675Z,40.8
2022-11-05T07:22:37.277Z,44.1
2022-11-05T07:23:37.876Z,42.3
2022-11-05T07:24:38.482Z,40.6
2022-11-05T07:25:39.086Z,41.6
2022-11-05T07:26:39.682Z,38.8
2022-11-05T07:27:40.303Z,41.7
2022-11-05T07:28:40.906Z,41.8
2022-11-05T07:29:41.506Z,40.9
2022-11-05T07:30:42.108Z,40.3
2022-11-05T07:31:42.713Z,39.3
2022-11-05T07:32:43.312Z,39.3
2022-11-05T07:33:43.915Z,37.8
2022-11-05T07:34:44.517Z,41.1
2022-11-05T07:35:45.120Z,39.2
2022-11-05T07:36:45.721Z,39.6
2022-11-05T07:37:46.323Z,39.1
2022-11-05T07:38:46.928Z,36.7
2022-11-05T07:39:47.525Z,38.8
2022-11-05T07:40:48.128Z,38.7
2022-11-05T07:41:48.729Z,37.7
2022-11-05T07:42:49.330Z,38.2
2022-11-05T07:43:49.929Z,39.9
2022-11-05T07:44:50.533Z,40.4
2022-11-05T07:45:51.133Z,42.6
2022-11-05T07:46:51.735Z,43.8
2022-11-05T07:47:52.344Z,44.5
2022-11-05T07:48:52.935Z,41.8
2022-11-05T07:49:53.536Z,44.9
2022-11-05T07:50:54.139Z,43.0
2022-11-05T07:51:54.740Z,43.7
2022-11-05T07:52:55.343Z,44.3
2022-11-05T07:53:55.946Z,41.5
2022-11-05T07:54:56.544Z,42.6
2022-11-05T07:55:57.145Z,43.5
2022-11-05T07:56:57.747Z,42.5
2022-11-05T07:57:58.350Z,45.3
2022-11-05T07:58:58.951Z,44.2
2022-11-05T07:59:59.551Z,43.4
2022-11-05T08:01:00.256Z,44.6
2022-11-05T08:02:00.967Z,44.9
2022-11-05T08:03:07.084Z,43.9
2022-11-05T08:04:03.206Z,44.4
2022-11-05T08:05:03.809Z,45.2
2022-11-05T08:06:04.430Z,44.3
2022-11-05T08:07:05.032Z,45.6
2022-11-05T08:08:05.632Z,43.6
2022-11-05T08:09:06.235Z,48.1
2022-11-05T08:10:06.843Z,45.9
2022-11-05T08:11:07.439Z,46.9
2022-11-05T08:12:08.039Z,45.2
2022-11-05T08:13:08.927Z,44.6
2022-11-05T08:14:09.640Z,46.5
2022-11-05T08:15:10.241Z,46.3
2022-11-05T08:16:10.842Z,48.9
2022-11-05T08:17:15.928Z,48.5
2022-11-05T08:18:12.130Z,48.4
2022-11-05T08:19:12.731Z,47.2
2022-11-05T08:20:13.333Z,49.8
2022-11-05T08:21:13.934Z,49.9
2022-11-05T08:22:14.540Z,49.7
2022-11-05T08:23:15.586Z,49.9
2022-11-05T08:24:15.783Z,47.8
2022-11-05T08:25:16.383Z,50.5
2022-11-05T08:26:16.984Z,47.9
2022-11-05T08:27:17.586Z,47.0
2022-11-05T08:28:18.190Z,48.7
2022-11-05T08:29:18.792Z,46.5
2022-11-05T08:30:19.396Z,50.1
2022-11-05T08:31:19.996Z,48.3
2022-11-05T08:32:20.598Z,47.8
2022-11-05T08:33:21.204Z,46.8
2022-11-05T08:34:21.806Z,48.0
2022-11-05T08:35:22.410Z,45.6
2022-11-05T08:36:23.013Z,46.0
2022-11-05T08:37:23.615Z,45.8
2022-11-05T08:38:24.217Z,46.0
2022-11-05T08:39:24.819Z,48.2
2022-11-05T08:40:25.476Z,47.0
2022-11-05T08:41:26.029Z,47.6
2022-11-05T08:42:26.631Z,47.5
2022-11-05T08:43:27.240Z,47.2
2022-11-05T08:44:27.837Z,44.9
2022-11-05T08:45:28.446Z,47.4
2022-11-05T08:46:29.042Z,46.6
2022-11-05T08:47:29.647Z,45.7
2022-11-05T08:48:30.271Z,44.2
2022-11-05T08:49:30.873Z,45.0
2022-11-05T08:50:31.475Z,43.7
2022-11-05T08:51:32.094Z,43.2
2022-11-05T08:52:32.700Z,41.5
2022-11-05T08:53:33.299Z,38.0
2022-11-05T08:54:33.901Z,39.9
2022-11-05T08:55:34.503Z,40.4
2022-11-05T08:56:35.103Z,41.8
2022-11-05T08:57:35.704Z,40.2
2022-11-05T08:58:36.305Z,40.9
2022-11-05T08:59:36.929Z,37.7
2022-11-05T09:00:37.531Z,40.2
2022-11-05T09:01:38.273Z,39.8
2022-11-05T09:02:38.972Z,39.8
2022-11-05T09:03:39.496Z,39.4
2022-11-05T09:04:40.095Z,39.0
2022-11-05T09:05:40.698Z,38.6
2022-11-05T09:06:41.299Z,38.0
2022-11-05T09:07:41.901Z,36.9
2022-11-05T09:08:42.499Z,37.8
2022-11-05T09:09:43.102Z,37.2
2022-11-05T09:10:43.704Z,36.6
2022-11-05T09:12:10.554Z,37.3
2022-11-05T09:12:45.898Z,37.1
2022-11-05T09:13:46.499Z,36.1
2022-11-05T09:14:47.103Z,36.0
2022-11-05T09:15:47.708Z,33.9
2022-11-05T09:16:48.363Z,34.1
2022-11-05T09:17:48.927Z,32.5
2022-11-05T09:18:49.526Z,33.3
2022-11-05T09:19:50.129Z,34.2
2022-11-05T09:20:50.729Z,33.8
2022-11-05T09:21:51.333Z,34.6
2022-11-05T09:22:51.932Z,32.7
2022-11-05T09:23:52.539Z,33.5
2022-11-05T09:24:53.133Z,34.2
2022-11-05T09:25:53.736Z,33.4
2022-11-05T09:26:54.336Z,33.9
2022-11-05T09:27:54.944Z,34.5
2022-11-05T09:28:55.542Z,32.3
2022-11-05T09:29:56.143Z,36.4
2022-11-05T09:30:56.742Z,32.3
2022-11-05T09:31:57.524Z,33.1
2022-11-05T09:32:58.037Z,33.4
2022-11-05T09:33:58.641Z,36.1
2022-11-05T09:34:59.239Z,35.8
2022-11-05T09:35:59.842Z,35.0
2022-11-05T09:37:00.461Z,35.6
2022-11-05T09:38:01.424Z,33.1
2022-11-05T09:39:02.033Z,34.6
2022-11-05T09:40:02.634Z,33.4
2022-11-05T09:41:03.234Z,35.0
2022-11-05T09:42:03.838Z,36.2
2022-11-05T09:43:04.438Z,34.9
2022-11-05T09:44:05.041Z,34.1
2022-11-05T09:45:05.642Z,36.5
2022-11-05T09:46:06.262Z,34.1
2022-11-05T09:47:06.863Z,36.1
2022-11-05T09:48:07.467Z,35.1
2022-11-05T09:49:08.066Z,34.3
2022-11-05T09:50:08.673Z,34.8
2022-11-05T09:51:09.271Z,35.6
2022-11-05T09:52:09.870Z,32.9
2022-11-05T09:53:10.822Z,35.0
2022-11-05T09:54:11.498Z,33.4
2022-11-05T09:55:12.098Z,35.4
2022-11-05T09:56:12.699Z,35.1
2022-11-05T09:57:13.298Z,35.3
2022-11-05T09:58:13.899Z,34.0
2022-11-05T09:59:14.501Z,35.3
2022-11-05T10:00:15.124Z,33.9
2022-11-05T10:01:15.797Z,34.4
2022-11-05T10:02:16.477Z,34.7
2022-11-05T10:03:17.088Z,33.1
2022-11-05T10:04:17.708Z,33.9
2022-11-05T10:05:18.386Z,32.7
2022-11-05T10:06:18.965Z,32.8
2022-11-05T10:07:19.567Z,33.3
2022-11-05T10:08:20.169Z,31.7
2022-11-05T10:09:20.775Z,31.3
2022-11-05T10:10:21.413Z,32.7
2022-11-05T10:11:21.969Z,33.7
2022-11-05T10:12:22.573Z,34.1
2022-11-05T10:13:23.173Z,33.3
2022-11-05T10:14:23.777Z,34.8
2022-11-05T10:15:24.396Z,33.0
2022-11-05T10:16:24.997Z,34.3
2022-11-05T10:17:25.664Z,32.4
2022-11-05T10:18:26.214Z,34.0
2022-11-05T10:19:26.811Z,32.2
2022-11-05T10:20:27.415Z,32.2
2022-11-05T10:21:59.427Z,32.0
2022-11-05T10:22:29.630Z,32.5
2022-11-05T10:23:30.237Z,33.8
2022-11-05T10:24:30.832Z,31.3
2022-11-05T10:25:31.437Z,32.4
2022-11-05T10:26:32.042Z,31.0
2022-11-05T10:27:32.639Z,29.3
2022-11-05T10:28:33.241Z,31.1
2022-11-05T10:29:33.843Z,30.1
2022-11-05T10:30:34.444Z,31.1
2022-11-05T10:31:35.673Z,27.6
2022-11-05T10:32:36.283Z,29.8
2022-11-05T10:33:36.910Z,27.7
2022-11-05T10:34:37.502Z,28.3
2022-11-05T10:35:38.107Z,29.1
2022-11-05T10:36:38.710Z,28.8
2022-11-05T10:37:41.012Z,27.8
2022-11-05T10:38:40.905Z,27.9
2022-11-05T10:39:41.508Z,28.0
2022-11-05T10:40:42.109Z,27.8
2022-11-05T10:41:42.711Z,26.2
2022-11-05T10:42:43.313Z,27.4
2022-11-05T10:43:43.946Z,26.0
2022-11-05T10:44:44.517Z,26.9
2022-11-05T10:45:45.133Z,26.2
2022-11-05T10:46:45.721Z,26.7
2022-11-05T10:47:46.358Z,26.5
2022-11-05T10:48:46.961Z,24.6
2022-11-05T10:49:47.565Z,24.8
2022-11-05T10:50:48.189Z,24.7
2022-11-05T10:51:48.792Z,24.0
2022-11-05T10:52:49.390Z,24.9
2022-11-05T10:53:49.995Z,24.6
2022-11-05T10:54:50.597Z,23.8
2022-11-05T10:55:51.200Z,23.2
2022-11-05T10:56:51.801Z,23.6
2022-11-05T10:57:52.409Z,22.8
2022-11-05T10:58:53.010Z,24.7
2022-11-05T10:59:53.608Z,23.1
2022-11-05T11:00:54.263Z,23.1
2022-11-05T11:01:55.001Z,22.9
2022-11-05T11:02:55.703Z,24.0
2022-11-05T11:03:56.240Z,23.1
2022-11-05T11:04:56.842Z,24.4
2022-11-05T11:05:57.445Z,22.9
2022-11-05T11:06:58.047Z,24.1
2022-11-05T11:07:58.651Z,26.9
2022-11-05T11:08:59.254Z,24.8
2022-11-05T11:09:59.853Z,22.1
2022-11-05T11:11:00.455Z,23.5
2022-11-05T11:12:01.060Z,22.7
2022-11-05T11:13:01.661Z,22.3
2022-11-05T11:14:02.263Z,22.2
2022-11-05T11:15:02.868Z,21.6
2022-11-05T11:16:03.470Z,23.3
2022-11-05T11:17:04.072Z,21.7
2022-11-05T11:18:04.735Z,22.0
2022-11-05T11:19:05.301Z,21.6
2022-11-05T11:20:05.903Z,20.8
2022-11-05T11:21:06.504Z,21.8
2022-11-05T11:22:07.108Z,21.4
2022-11-05T11:23:07.709Z,21.4
2022-11-05T11:24:08.313Z,19.4
2022-11-05T11:25:08.914Z,19.7
2022-11-05T11:26:09.519Z,19.1
2022-11-05T11:27:10.152Z,18.2
2022-11-05T11:28:10.744Z,17.0
2022-11-05T11:29:11.346Z,17.4
2022-11-05T11:30:11.951Z,15.6
2022-11-05T11:31:12.552Z,17.0
2022-11-05T11:32:13.156Z,16.2
2022-11-05T11:33:14.003Z,15.2
2022-11-05T11:34:14.794Z,15.5
2022-11-05T11:35:15.397Z,14.5
2022-11-05T11:36:16.002Z,14.3
2022-11-05T11:37:19.410Z,15.4
2022-11-05T11:38:18.200Z,14.3
2022-11-05T11:39:18.803Z,13.7
2022-11-05T11:40:19.405Z,13.7
2022-11-05T11:41:20.009Z,13.2
2022-11-05T11:42:20.620Z,12.0
2022-11-05T11:43:21.217Z,12.3
2022-11-05T11:44:21.822Z,12.2
2022-11-05T11:45:22.431Z,12.2
2022-11-05T11:46:23.029Z,12.5
2022-11-05T11:47:23.653Z,12.8
2022-11-05T11:48:24.279Z,11.5
2022-11-05T11:49:24.879Z,11.9
2022-11-05T11:50:25.485Z,10.8
2022-11-05T11:51:26.115Z,10.9
2022-11-05T11:52:26.712Z,11.3
2022-11-05T11:53:27.312Z,10.6
2022-11-05T11:54:29.203Z,10.8
2022-11-05T11:55:29.513Z,11.0
2022-11-05T11:56:30.117Z,10.7
2022-11-05T11:57:30.739Z,11.0
2022-11-05T11:58:31.342Z,9.5
2022-11-05T12:00:01.809Z,10.5
2022-11-05T12:00:33.542Z,10.4
2022-11-05T12:01:34.195Z,10.1
2022-11-05T12:02:34.824Z,9.5
2022-11-05T12:03:35.368Z,9.9
2022-11-05T12:04:35.966Z,7.9
2022-11-05T12:05:36.569Z,8.4
2022-11-05T12:06:37.172Z,7.4
2022-11-05T12:07:37.793Z,7.8
2022-11-05T12:08:41.688Z,7.3
2022-11-05T12:09:39.990Z,7.5
2022-11-05T12:10:40.591Z,6.9
2022-11-05T12:11:41.191Z,6.6
2022-11-05T12:12:41.791Z,6.4
2022-11-05T12:13:42.390Z,5.7
2022-11-05T12:14:46.453Z,6.2
2022-11-05T12:15:44.583Z,6.2
2022-11-05T12:16:45.183Z,5.2
2022-11-05T12:17:45.781Z,5.6
2022-11-05T12:18:46.572Z,5.8
2022-11-05T12:19:47.081Z,5.0
2022-11-05T12:20:48.643Z,5.6
2022-11-05T12:21:52.927Z,5.2
2022-11-05T12:22:50.872Z,6.1
2022-11-05T12:23:51.471Z,5.3
2022-11-05T12:24:52.073Z,4.6
2022-11-05T12:25:52.671Z,5.2
2022-11-05T12:26:53.272Z,5.4
2022-11-05T12:27:53.868Z,4.8
2022-11-05T12:29:17.315Z,4.8
2022-11-05T12:29:56.065Z,4.9
2022-11-05T12:30:56.680Z,5.6
2022-11-05T12:31:57.281Z,5.9
2022-11-05T12:32:57.944Z,5.1
2022-11-05T12:33:58.499Z,5.1
2022-11-05T12:34:59.105Z,4.7
2022-11-05T12:35:59.699Z,4.8
2022-11-05T12:37:00.301Z,4.1
2022-11-05T12:38:00.902Z,4.2
2022-11-05T12:39:01.506Z,5.1
2022-11-05T12:40:02.106Z,4.7
2022-11-05T12:41:02.709Z,4.5
2022-11-05T12:42:03.305Z,4.2
2022-11-05T12:43:09.045Z,4.8
2022-11-05T12:44:05.499Z,4.3
2022-11-05T12:45:06.098Z,4.1
2022-11-05T12:46:06.698Z,4.3
2022-11-05T12:47:07.298Z,4.5
2022-11-05T12:48:07.896Z,4.0
2022-11-05T12:49:08.500Z,4.4
2022-11-05T12:50:09.099Z,4.0
2022-11-05T12:51:09.709Z,3.7
2022-11-05T12:52:10.297Z,3.7
2022-11-05T12:53:11.279Z,3.6
2022-11-05T12:54:12.001Z,3.6
2022-11-05T12:55:12.603Z,3.8
2022-11-05T12:56:13.201Z,3.8
2022-11-05T12:57:13.812Z,4.0
2022-11-05T12:58:14.420Z,3.9
2022-11-05T12:59:15.023Z,3.6
2022-11-05T13:00:15.637Z,4.0
2022-11-05T13:01:16.272Z,4.1
2022-11-05T13:02:17.014Z,4.0
2022-11-05T13:03:17.645Z,3.9
2022-11-05T13:04:18.301Z,3.9
2022-11-05T13:05:18.864Z,3.9
2022-11-05T13:06:19.464Z,4.2
2022-11-05T13:07:20.066Z,3.8
2022-11-05T13:08:20.665Z,3.6
2022-11-05T13:09:21.268Z,4.4
2022-11-05T13:10:21.866Z,4.4
2022-11-05T13:11:22.470Z,3.9
2022-11-05T13:12:23.068Z,3.7
2022-11-05T13:13:23.670Z,4.2
2022-11-05T13:14:24.267Z,4.0
2022-11-05T13:15:24.883Z,3.8
2022-11-05T13:16:25.481Z,3.6
2022-11-05T13:17:26.082Z,4.3
2022-11-05T13:18:26.681Z,3.5
2022-11-05T13:19:27.281Z,3.6
2022-11-05T13:20:27.883Z,3.7
2022-11-05T13:21:28.486Z,3.5
2022-11-05T13:22:29.085Z,3.4
2022-11-05T13:23:29.691Z,3.1
2022-11-05T13:24:30.286Z,3.6
2022-11-05T13:25:30.886Z,3.4
2022-11-05T13:26:31.487Z,3.4
2022-11-05T13:27:32.088Z,3.7
2022-11-05T13:28:32.693Z,3.6
2022-11-05T13:29:33.291Z,4.3